Vernon Springs, Iowa
Current Conditions -  °F | °C
As of 5:55 AM on Sunday 21 Dec 2014 (Local Time) from KFKA Reporting Station
Moderate Fog Moderate Fog  
Wind Chill: 23°   Ceiling: 200
Heat Index: 31°   Visibility: 0.5mi
Dew Point: 31°   Wind: 10mph
Humidity: 99%   Direction: 160°SSE
Pressure: 29.99"   Gusts: NA
Location:  43.363°N, 92.1685°W
Report Text: KFKA 211155Z AUTO 16009KT 1/2SM FZFG OVC002 00/00 A2999 RMK AO2 T10031005 11003 21014
Loading
Personal Weather Stations






























Interactive Weather Map New forecast layout! Learn more

10-Day Weather Forecast

Advertisements
Track Severe Weather on mobile